Time;durP1;ratioP1;P1;durP2;ratioP2;P2;SDS_P1;SDS_P2;PMS_P1;PMS_P2;Temp;Humidity;BMP_temperature;BMP_pressure;BME280_temperature;BME280_humidity;BME280_pressure;Samples;Min_cycle;Max_cycle;Signal;HPM_P1;HPM_P2
2021/06/04 00:01:03;;;;;;;4.75;2.72;;;19.10;99.90;;;;;;4977369;28;20053;-81
2021/06/04 00:03:29;;;;;;;3.10;2.80;;;19.00;99.90;;;;;;4976717;28;20074;-81
2021/06/04 00:05:55;;;;;;;3.53;3.15;;;19.00;99.90;;;;;;4976555;28;20026;-82
2021/06/04 00:08:23;;;;;;;3.03;2.70;;;19.10;99.90;;;;;;4976238;28;20038;-81
2021/06/04 00:10:56;;;;;;;4.53;3.15;;;19.00;99.90;;;;;;4976685;28;20110;-82
2021/06/04 00:13:45;;;;;;;3.53;3.10;;;19.00;99.90;;;;;;4976217;28;20106;-81
2021/06/04 00:16:33;;;;;;;3.65;3.10;;;19.00;99.90;;;;;;4974603;28;20066;-81
2021/06/04 00:19:01;;;;;;;4.28;3.08;;;19.00;99.90;;;;;;4974282;28;20027;-81
2021/06/04 00:21:30;;;;;;;4.75;3.60;;;18.90;99.90;;;;;;4975161;28;20486;-81
2021/06/04 00:23:59;;;;;;;3.60;3.08;;;18.80;99.90;;;;;;4976624;28;20031;-81
2021/06/04 00:26:25;;;;;;;3.60;2.60;;;18.80;99.90;;;;;;4975967;28;20086;-81
2021/06/04 00:28:51;;;;;;;;;;;18.70;99.90;;;;;;4976415;28;19910;-82
2021/06/04 00:31:17;;;;;;;;;;;18.60;99.90;;;;;;5008552;28;20567;-81
2021/06/04 00:33:44;;;;;;;3.05;2.75;;;18.50;99.90;;;;;;5008578;28;20039;-81
2021/06/04 00:36:10;;;;;;;;;;;18.50;99.90;;;;;;4975376;28;20012;-81
2021/06/04 00:38:36;;;;;;;;;;;18.50;99.90;;;;;;5008306;28;20039;-82
2021/06/04 00:41:04;;;;;;;;;;;18.40;99.90;;;;;;4976965;28;20048;-81
2021/06/04 00:43:29;;;;;;;;;;;18.30;99.90;;;;;;5008774;28;20031;-81
2021/06/04 00:45:56;;;;;;;4.20;2.80;;;18.30;99.90;;;;;;4976941;28;20491;-81
2021/06/04 00:48:23;;;;;;;4.30;3.00;;;18.30;99.90;;;;;;4975772;28;20140;-82
2021/06/04 00:50:59;;;;;;;3.30;2.90;;;18.20;99.90;;;;;;4976732;28;20067;-81
2021/06/04 00:53:25;;;;;;;;;;;18.20;99.90;;;;;;4977543;28;19945;-82
2021/06/04 00:55:51;;;;;;;;;;;18.20;99.90;;;;;;5007990;28;20385;-82
2021/06/04 00:58:18;;;;;;;;;;;18.20;99.90;;;;;;5008408;28;24079;-80
2021/06/04 01:00:48;;;;;;;;;;;18.10;99.90;;;;;;5006225;28;19910;-81
2021/06/04 01:03:14;;;;;;;;;;;18.20;99.90;;;;;;5008437;28;19906;-81
2021/06/04 01:05:40;;;;;;;;;;;18.30;99.90;;;;;;5009798;28;20289;-82
2021/06/04 01:08:12;;;;;;;;;;;18.20;99.90;;;;;;5008183;28;19913;-81
2021/06/04 01:11:03;;;;;;;;;;;18.20;99.90;;;;;;4975268;28;19906;-81
2021/06/04 01:13:31;;;;;;;;;;;18.10;99.90;;;;;;5008111;28;24074;-82
2021/06/04 01:16:03;;;;;;;;;;;18.10;99.90;;;;;;5008629;28;19906;-81
2021/06/04 01:18:31;;;;;;;;;;;18.10;99.90;;;;;;4975835;28;20325;-82
2021/06/04 01:21:03;;;;;;;;;;;18.00;99.90;;;;;;4975707;28;19937;-82
2021/06/04 01:23:47;;;;;;;;;;;18.00;99.90;;;;;;5007762;28;19909;-82
2021/06/04 01:26:15;;;;;;;;;;;18.00;99.90;;;;;;4975551;28;19906;-82
2021/06/04 01:28:45;;;;;;;;;;;18.00;99.90;;;;;;4975369;28;19948;-82
2021/06/04 01:31:17;;;;;;;;;;;18.00;99.90;;;;;;5008457;28;19988;-82
2021/06/04 01:33:48;;;;;;;;;;;18.00;99.90;;;;;;4975473;28;19934;-82
2021/06/04 01:36:20;;;;;;;;;;;17.90;99.90;;;;;;4974722;28;19954;-81
2021/06/04 01:38:46;;;;;;;;;;;17.90;99.90;;;;;;5007277;28;20378;-81
2021/06/04 01:41:14;;;;;;;;;;;17.90;99.90;;;;;;4977005;28;24061;-82
2021/06/04 01:43:42;;;;;;;;;;;17.90;99.90;;;;;;4976669;28;19910;-81
2021/06/04 01:46:11;;;;;;;;;;;17.70;99.90;;;;;;4975117;28;19910;-80
2021/06/04 01:48:38;;;;;;;;;;;17.70;99.90;;;;;;4977233;28;19937;-80
2021/06/04 01:51:09;;;;;;;6.28;4.43;;;17.70;99.90;;;;;;4979640;28;19905;-80
2021/06/04 01:53:43;;;;;;;5.47;4.40;;;17.70;99.90;;;;;;4976862;28;20467;-80
2021/06/04 01:56:16;;;;;;;4.53;4.03;;;17.70;99.90;;;;;;4975275;28;20031;-81
2021/06/04 01:58:53;;;;;;;5.70;4.20;;;17.70;99.90;;;;;;4976425;28;20042;-79
2021/06/04 02:01:21;;;;;;;;;;;17.70;99.90;;;;;;4976985;28;20437;-80
2021/06/04 02:03:47;;;;;;;6.07;4.28;;;17.70;99.90;;;;;;5007938;28;19913;-82
2021/06/04 02:06:13;;;;;;;9.23;4.60;;;17.70;99.90;;;;;;4975616;28;20023;-80
2021/06/04 02:08:47;;;;;;;4.97;4.30;;;17.70;99.90;;;;;;4975131;28;20031;-80
2021/06/04 02:11:13;;;;;;;;;;;17.70;99.90;;;;;;4976405;28;20037;-80
2021/06/04 02:13:40;;;;;;;;;;;17.70;99.90;;;;;;5008469;28;19907;-81
2021/06/04 02:16:16;;;;;;;;;;;17.60;99.90;;;;;;5008406;28;20111;-80
2021/06/04 02:19:00;;;;;;;;;;;17.60;99.90;;;;;;5006762;28;19921;-81
2021/06/04 02:21:30;;;;;;;;;;;17.60;99.90;;;;;;4974990;28;19917;-80
2021/06/04 02:24:06;;;;;;;;;;;17.50;99.90;;;;;;4974725;28;19912;-80
2021/06/04 02:26:52;;;;;;;;;;;17.40;99.90;;;;;;5005264;28;19910;-81
2021/06/04 02:29:22;;;;;;;;;;;17.40;99.90;;;;;;5005705;28;20388;-81
2021/06/04 02:31:47;;;;;;;;;;;17.30;99.90;;;;;;5005987;28;19906;-80
2021/06/04 02:34:14;;;;;;;;;;;17.30;99.90;;;;;;4973313;28;19969;-80
2021/06/04 02:36:42;;;;;;;;;;;17.30;99.90;;;;;;5006336;28;19906;-80
2021/06/04 02:39:16;;;;;;;;;;;17.20;99.90;;;;;;4973681;28;19910;-79
2021/06/04 02:41:45;;;;;;;;;;;17.10;99.90;;;;;;5005300;28;19973;-80
2021/06/04 02:44:12;;;;;;;;;;;17.10;99.90;;;;;;5005959;28;20369;-79
2021/06/04 02:46:42;;;;;;;;;;;17.20;99.90;;;;;;4976315;28;20366;-80
2021/06/04 02:49:09;;;;;;;;;;;17.20;99.90;;;;;;5005734;28;20436;-79
2021/06/04 02:51:48;;;;;;;;;;;17.10;99.90;;;;;;5006089;28;19910;-80
2021/06/04 02:54:16;;;;;;;;;;;17.00;99.90;;;;;;5006819;28;19906;-80
2021/06/04 02:56:43;;;;;;;;;;;16.90;99.90;;;;;;5007434;28;19910;-80
2021/06/04 02:59:14;;;;;;;;;;;16.90;99.90;;;;;;5006810;28;20301;-80
2021/06/04 03:01:45;;;;;;;;;;;16.90;99.90;;;;;;5006209;28;19898;-80
2021/06/04 03:04:12;;;;;;;;;;;16.90;99.90;;;;;;5007485;28;20422;-80
2021/06/04 03:06:39;;;;;;;;;;;16.90;99.90;;;;;;5006846;28;24140;-80
2021/06/04 03:09:07;;;;;;;;;;;16.90;99.90;;;;;;5006505;28;19906;-79
2021/06/04 03:11:33;;;;;;;;;;;17.00;99.90;;;;;;5006951;28;19911;-79
2021/06/04 03:14:00;;;;;;;;;;;16.90;99.90;;;;;;5006685;28;19921;-80
2021/06/04 03:16:26;;;;;;;;;;;16.90;99.90;;;;;;4974850;28;20495;-80
2021/06/04 03:18:57;;;;;;;;;;;16.90;99.90;;;;;;5006024;28;24062;-80
2021/06/04 03:22:01;;;;;;;;;;;16.90;99.90;;;;;;4974869;28;19913;-79
2021/06/04 03:24:28;;;;;;;;;;;17.00;99.90;;;;;;4934088;29;20366;-80
2021/06/04 03:26:54;;;;;;;;;;;17.00;99.90;;;;;;4918373;29;19911;-80
2021/06/04 03:29:20;;;;;;;;;;;17.10;99.90;;;;;;4953078;28;24062;-81
2021/06/04 03:31:48;;;;;;;;;;;17.20;99.90;;;;;;4975202;28;20416;-81
2021/06/04 03:34:14;;;;;;;;;;;17.20;99.90;;;;;;5006919;28;19913;-80
2021/06/04 03:36:41;;;;;;;;;;;17.30;99.90;;;;;;4974922;28;19905;-79
2021/06/04 03:39:08;;;;;;;;;;;17.40;99.90;;;;;;5006109;28;19909;-79
2021/06/04 03:41:35;;;;;;;;;;;17.50;99.90;;;;;;4974297;28;19937;-80
2021/06/04 03:44:02;;;;;;;;;;;17.50;99.90;;;;;;5006036;28;19910;-80
2021/06/04 03:46:28;;;;;;;;;;;17.50;99.90;;;;;;5007096;28;19910;-80
2021/06/04 03:48:54;;;;;;;;;;;17.60;99.90;;;;;;4974746;28;19925;-80
2021/06/04 03:51:22;;;;;;;;;;;17.70;99.90;;;;;;5006259;28;20444;-80
2021/06/04 03:53:48;;;;;;;;;;;17.70;99.90;;;;;;4973868;28;19949;-80
2021/06/04 03:56:14;;;;;;;;;;;17.70;99.90;;;;;;5006162;28;19961;-80
2021/06/04 03:58:41;;;;;;;;;;;17.80;99.90;;;;;;5006411;28;19914;-81
2021/06/04 04:01:08;;;;;;;;;;;17.80;99.90;;;;;;5006052;28;19910;-81
2021/06/04 04:03:34;;;;;;;;;;;17.80;99.90;;;;;;5007205;28;19910;-81
2021/06/04 04:05:59;;;;;;;;;;;17.80;99.90;;;;;;5006059;28;20298;-80
2021/06/04 04:08:26;;;;;;;;;;;17.90;99.90;;;;;;5006329;28;19928;-80
2021/06/04 04:10:52;;;;;;;;;;;17.90;99.90;;;;;;4976139;28;19910;-81
2021/06/04 04:13:19;;;;;;;;;;;18.00;99.90;;;;;;4972530;28;19906;-81
2021/06/04 04:15:45;;;;;;;;;;;18.10;99.90;;;;;;5005459;28;19906;-80
2021/06/04 04:18:11;;;;;;;;;;;18.10;99.90;;;;;;5007181;28;19920;-81
2021/06/04 04:20:38;;;;;;;;;;;18.10;99.90;;;;;;5005472;28;19973;-81
2021/06/04 04:23:04;;;;;;;;;;;18.10;99.90;;;;;;5007416;28;19918;-83
2021/06/04 04:25:33;;;;;;;7.23;5.27;;;18.20;99.90;;;;;;5009098;28;19910;-80
2021/06/04 04:28:00;;;;;;;8.80;5.60;;;18.30;99.90;;;;;;4976022;28;20026;-80
2021/06/04 04:30:25;;;;;;;;;;;18.30;99.90;;;;;;4975064;28;20047;-79
2021/06/04 04:32:51;;;;;;;;;;;18.40;99.90;;;;;;4972037;28;20050;-80
2021/06/04 04:35:18;;;;;;;;;;;18.30;99.90;;;;;;5005095;28;20292;-79
2021/06/04 04:37:44;;;;;;;;;;;18.40;99.90;;;;;;5007073;28;24075;-80
2021/06/04 04:40:10;;;;;;;;;;;18.50;99.90;;;;;;4975422;28;19910;-81
2021/06/04 04:42:35;;;;;;;;;;;18.60;99.90;;;;;;5009133;28;24058;-83
2021/06/04 04:45:01;;;;;;;;;;;18.80;99.90;;;;;;4976610;28;19910;-80
2021/06/04 04:47:27;;;;;;;;;;;18.90;99.90;;;;;;4976917;28;19913;-81
2021/06/04 04:49:52;;;;;;;;;;;19.20;99.90;;;;;;4974262;28;19981;-80
2021/06/04 04:52:18;;;;;;;;;;;19.60;99.90;;;;;;5007466;28;19906;-81
2021/06/04 04:54:46;;;;;;;;;;;20.30;99.90;;;;;;5006071;28;19906;-80
2021/06/04 04:57:12;;;;;;;;;;;20.80;99.90;;;;;;5007044;28;19909;-80
2021/06/04 04:59:38;;;;;;;;;;;21.00;99.90;;;;;;4973071;28;19932;-80
2021/06/04 05:02:05;;;;;;;5.20;4.10;;;21.10;99.90;;;;;;5007042;28;19906;-81
2021/06/04 05:04:31;;;;;;;5.10;4.05;;;20.90;99.90;;;;;;4973833;28;20013;-81
2021/06/04 05:06:56;;;;;;;5.30;4.30;;;20.90;99.90;;;;;;4963484;28;19907;-80
2021/06/04 05:09:22;;;;;;;5.85;4.10;;;21.10;99.90;;;;;;4964190;28;19910;-80
2021/06/04 05:11:48;;;;;;;5.13;3.77;;;21.00;99.90;;;;;;4964415;28;19925;-80
2021/06/04 05:14:15;;;;;;;6.05;4.50;;;21.00;99.90;;;;;;4964137;28;19974;-80
2021/06/04 05:16:41;;;;;;;5.97;4.85;;;21.10;99.90;;;;;;4955810;28;20038;-80
2021/06/04 05:19:07;;;;;;;5.45;3.58;;;21.10;99.90;;;;;;4956617;28;20027;-80
2021/06/04 05:21:33;;;;;;;;;;;21.00;99.90;;;;;;4956000;28;19906;-81
2021/06/04 05:23:59;;;;;;;7.03;4.23;;;21.20;99.90;;;;;;4956806;28;19949;-80
2021/06/04 05:26:24;;;;;;;4.25;3.47;;;21.40;99.90;;;;;;4963144;28;19933;-81
2021/06/04 05:28:51;;;;;;;8.68;3.90;;;21.70;99.90;;;;;;4967467;28;19961;-81
2021/06/04 05:31:18;;;;;;;4.60;3.83;;;21.80;99.90;;;;;;4965161;28;20031;-81
2021/06/04 05:33:44;;;;;;;;;;;21.90;99.90;;;;;;4969435;28;20487;-81
2021/06/04 05:36:12;;;;;;;;;;;21.90;99.90;;;;;;4999831;28;19937;-81
2021/06/04 05:38:38;;;;;;;5.55;4.30;;;21.90;99.90;;;;;;4967002;28;20080;-81
2021/06/04 05:41:05;;;;;;;4.10;3.55;;;22.00;99.90;;;;;;4966132;28;20030;-81
2021/06/04 05:43:32;;;;;;;;;;;21.90;99.90;;;;;;4968631;28;19910;-81
2021/06/04 05:45:57;;;;;;;;;;;21.60;99.90;;;;;;4967395;28;20329;-81
2021/06/04 05:48:23;;;;;;;;;;;21.30;99.90;;;;;;4969214;28;20041;-81
2021/06/04 05:50:50;;;;;;;;;;;21.20;99.90;;;;;;4999150;28;19970;-82
2021/06/04 05:53:17;;;;;;;;;;;21.10;99.90;;;;;;4981115;28;20474;-80
2021/06/04 05:55:43;;;;;;;;;;;20.80;99.90;;;;;;5004750;28;20027;-81
2021/06/04 05:58:10;;;;;;;;;;;20.60;99.90;;;;;;5003337;28;19913;-80
2021/06/04 06:00:40;;;;;;;;;;;20.40;99.90;;;;;;4972156;28;19957;-81
2021/06/04 06:03:06;;;;;;;;;;;20.30;99.90;;;;;;4982611;28;20091;-81
2021/06/04 06:05:31;;;;;;;6.50;5.00;;;20.10;99.90;;;;;;4981058;28;20495;-80
2021/06/04 06:07:57;;;;;;;8.33;5.00;;;19.80;99.90;;;;;;4978989;28;20020;-80
2021/06/04 06:10:23;;;;;;;6.43;5.05;;;19.60;99.90;;;;;;4975220;28;19953;-81
2021/06/04 06:12:49;;;;;;;9.70;6.78;;;19.60;99.90;;;;;;4975199;28;20058;-81
2021/06/04 06:15:15;;;;;;;9.67;6.17;;;19.60;99.90;;;;;;4976721;28;19913;-80
2021/06/04 06:17:41;;;;;;;8.00;5.60;;;19.50;99.90;;;;;;4975721;28;19914;-80
2021/06/04 06:20:09;;;;;;;;;;;19.30;99.90;;;;;;4965643;28;20259;-79
2021/06/04 06:22:34;;;;;;;9.75;6.40;;;19.30;99.90;;;;;;5003222;28;20557;-81
2021/06/04 06:25:00;;;;;;;;;;;19.30;99.90;;;;;;4965450;28;19910;-80
2021/06/04 06:27:25;;;;;;;;;;;19.30;99.90;;;;;;5000996;28;24095;-80
2021/06/04 06:29:51;;;;;;;;;;;19.20;99.90;;;;;;4968158;28;19958;-80
2021/06/04 06:32:20;;;;;;;;;;;19.10;99.90;;;;;;4966739;28;19906;-80
2021/06/04 06:34:46;;;;;;;;;;;19.10;99.90;;;;;;4964509;28;19910;-81
2021/06/04 06:37:12;;;;;;;;;;;19.00;99.90;;;;;;4960596;28;19910;-81
2021/06/04 06:39:38;;;;;;;;;;;19.00;99.90;;;;;;4970771;28;20411;-80
2021/06/04 06:42:05;;;;;;;;;;;19.00;99.90;;;;;;4975827;28;19918;-81
2021/06/04 06:44:32;;;;;;;;;;;19.00;99.90;;;;;;4966352;28;20010;-81
2021/06/04 06:46:57;;;;;;;;;;;19.10;99.90;;;;;;4968884;28;19957;-80
2021/06/04 06:49:23;;;;;;;;;;;19.10;99.90;;;;;;4994562;28;20279;-81
2021/06/04 06:51:49;;;;;;;;;;;19.00;99.90;;;;;;4999738;28;19910;-80
2021/06/04 06:54:17;;;;;;;;;;;19.00;99.90;;;;;;4968983;28;19973;-80
2021/06/04 06:56:43;;;;;;;;;;;19.00;99.90;;;;;;4961307;28;24061;-80
2021/06/04 06:59:09;;;;;;;;;;;19.10;99.90;;;;;;4958092;28;19983;-81
2021/06/04 07:01:35;;;;;;;;;;;19.10;99.90;;;;;;4971201;28;20294;-80
2021/06/04 07:04:01;;;;;;;;;;;19.20;99.90;;;;;;5000048;28;19914;-80
2021/06/04 07:06:29;;;;;;;11.10;8.10;;;19.30;99.90;;;;;;5011782;28;20413;-80
2021/06/04 07:08:56;;;;;;;10.75;8.00;;;19.30;99.90;;;;;;4981011;28;19949;-80
2021/06/04 07:11:23;;;;;;;;;;;19.30;99.90;;;;;;4971580;28;20027;-80
2021/06/04 07:13:49;;;;;;;;;;;19.30;99.90;;;;;;4965718;28;20011;-80
2021/06/04 07:16:15;;;;;;;12.27;7.33;;;19.40;99.90;;;;;;4965699;28;20059;-81
2021/06/04 07:18:41;;;;;;;;;;;19.40;99.90;;;;;;4972812;28;20275;-81
2021/06/04 07:21:13;;;;;;;10.40;7.22;;;19.40;99.90;;;;;;5004816;28;25122;-80
2021/06/04 07:23:39;;;;;;;9.82;6.38;;;19.40;99.90;;;;;;4973562;28;20037;-81
2021/06/04 07:26:06;;;;;;;11.98;7.68;;;19.50;99.90;;;;;;4963477;28;20066;-79
2021/06/04 07:28:33;;;;;;;11.00;7.32;;;19.50;99.90;;;;;;4960228;28;20035;-80
2021/06/04 07:31:01;;;;;;;9.13;7.65;;;19.60;99.90;;;;;;4959036;28;20031;-80
2021/06/04 07:33:33;;;;;;;10.13;7.65;;;19.60;99.90;;;;;;4959030;28;20118;-82
2021/06/04 07:35:59;;;;;;;;;;;19.80;99.90;;;;;;4972258;28;20105;-81
2021/06/04 07:38:25;;;;;;;;;;;19.90;99.90;;;;;;5008582;28;19949;-82
2021/06/04 07:40:52;;;;;;;8.70;7.30;;;20.00;99.90;;;;;;5013824;28;19906;-81
2021/06/04 07:43:22;;;;;;;10.80;6.85;;;20.20;99.90;;;;;;4979717;28;24066;-81
2021/06/04 07:45:47;;;;;;;9.23;7.03;;;20.30;99.90;;;;;;4979355;28;20018;-79
2021/06/04 07:48:16;;;;;;;8.80;6.22;;;20.40;99.90;;;;;;4978243;28;20054;-80
2021/06/04 07:50:42;;;;;;;;;;;20.50;99.90;;;;;;4979904;28;20027;-80
2021/06/04 07:53:10;;;;;;;15.00;8.00;;;20.50;99.90;;;;;;5011411;28;24065;-80
2021/06/04 07:55:36;;;;;;;10.15;7.47;;;21.00;99.90;;;;;;4979247;28;20057;-80
2021/06/04 07:58:03;;;;;;;9.43;7.35;;;21.30;99.90;;;;;;4979802;28;20058;-80
2021/06/04 08:00:31;;;;;;;8.93;7.28;;;21.60;99.90;;;;;;4978899;28;20034;-80
2021/06/04 08:03:00;;;;;;;11.57;7.03;;;21.70;99.90;;;;;;4979264;28;20034;-80
2021/06/04 08:05:26;;;;;;;11.70;7.60;;;21.80;99.90;;;;;;4980710;28;20047;-80
2021/06/04 08:07:51;;;;;;;8.68;6.82;;;22.10;99.90;;;;;;4980272;28;20081;-80
2021/06/04 08:10:18;;;;;;;8.77;7.05;;;22.50;99.90;;;;;;4981697;28;20023;-80
2021/06/04 08:12:45;;;;;;;8.57;6.60;;;22.80;99.90;;;;;;4980973;28;20126;-80
2021/06/04 08:15:21;;;;;;;;;;;23.40;99.90;;;;;;4982498;28;20033;-80
2021/06/04 08:17:47;;;;;;;;;;;23.90;99.90;;;;;;4984614;28;19906;-80
2021/06/04 08:20:22;;;;;;;9.55;6.85;;;24.40;99.90;;;;;;4983717;28;19933;-79
2021/06/04 08:22:50;;;;;;;9.30;6.57;;;24.90;99.90;;;;;;4981526;28;20098;-81
2021/06/04 08:25:19;;;;;;;8.73;6.57;;;25.90;99.90;;;;;;4984429;28;19953;-80
2021/06/04 08:27:45;;;;;;;7.40;6.55;;;26.80;99.90;;;;;;4981933;28;20023;-80
2021/06/04 08:30:12;;;;;;;7.90;6.10;;;27.70;99.90;;;;;;4980734;28;19972;-81
2021/06/04 08:32:39;;;;;;;9.20;6.30;;;27.60;99.90;;;;;;4979978;28;20027;-81
2021/06/04 08:35:07;;;;;;;7.55;6.20;;;27.70;99.90;;;;;;4979871;28;20141;-79
2021/06/04 08:37:33;;;;;;;8.38;6.38;;;27.80;99.90;;;;;;4978278;28;20567;-81
2021/06/04 08:39:58;;;;;;;9.63;5.53;;;27.50;99.90;;;;;;4980570;28;20121;-80
2021/06/04 08:42:35;;;;;;;6.97;5.33;;;27.70;99.90;;;;;;4979022;28;20057;-81
2021/06/04 08:45:12;;;;;;;;;;;28.10;99.90;;;;;;4975593;28;20027;-79
2021/06/04 08:47:41;;;;;;;5.70;5.20;;;28.20;99.90;;;;;;4974800;28;19910;-80
2021/06/04 08:50:22;;;;;;;8.13;5.78;;;28.50;99.90;;;;;;4975078;28;20023;-79
2021/06/04 08:53:08;;;;;;;8.57;5.55;;;28.50;99.90;;;;;;4974799;28;20027;-81
2021/06/04 08:55:45;;;;;;;5.63;5.00;;;28.40;99.90;;;;;;4976736;28;20061;-81
2021/06/04 08:58:35;;;;;;;6.97;4.88;;;28.40;99.90;;;;;;4973837;28;20077;-80
2021/06/04 09:01:06;;;;;;;6.80;4.50;;;28.70;99.90;;;;;;4974143;28;20022;-80
2021/06/04 09:03:40;;;;;;;4.93;4.40;;;28.80;99.90;;;;;;4974342;28;20513;-80
2021/06/04 09:06:12;;;;;;;4.45;4.03;;;29.30;99.90;;;;;;4973131;28;20027;-80
2021/06/04 09:08:40;;;;;;;5.60;4.80;;;30.00;99.90;;;;;;4974487;28;20031;-80
2021/06/04 09:11:24;;;;;;;5.82;4.38;;;29.60;99.90;;;;;;4973440;28;20023;-80
2021/06/04 09:13:49;;;;;;;4.97;3.88;;;29.30;99.90;;;;;;4974255;28;20026;-80
2021/06/04 09:16:39;;;;;;;6.30;4.00;;;28.80;99.90;;;;;;4973566;28;20026;-80
2021/06/04 09:19:28;;;;;;;4.40;4.00;;;29.60;99.90;;;;;;4972529;28;20375;-79
2021/06/04 09:21:55;;;;;;;4.45;3.55;;;31.00;99.90;;;;;;4974401;28;20023;-80
2021/06/04 09:24:26;;;;;;;;;;;31.80;99.90;;;;;;4973774;28;20027;-80
2021/06/04 09:26:52;;;;;;;;;;;31.60;99.90;;;;;;4972902;28;19910;-80
2021/06/04 09:29:24;;;;;;;4.13;3.73;;;32.00;99.90;;;;;;4974058;28;20040;-80
2021/06/04 09:32:09;;;;;;;4.80;4.35;;;31.90;99.90;;;;;;4972625;28;20027;-82
2021/06/04 09:34:35;;;;;;;4.00;3.60;;;31.80;99.90;;;;;;4971444;28;19913;-80
2021/06/04 09:37:11;;;;;;;6.20;4.35;;;31.50;99.90;;;;;;4974623;28;19910;-81
2021/06/04 09:39:40;;;;;;;4.40;4.00;;;31.30;99.90;;;;;;4972988;28;20067;-80
2021/06/04 09:42:06;;;;;;;;;;;30.50;99.90;;;;;;4974216;28;20047;-80
2021/06/04 09:44:33;;;;;;;6.50;4.50;;;30.20;99.90;;;;;;4972724;28;20535;-80
2021/06/04 09:46:59;;;;;;;;;;;30.20;99.90;;;;;;4972873;28;20122;-80
2021/06/04 09:49:34;;;;;;;4.90;3.67;;;30.20;99.90;;;;;;4974026;28;20122;-80
2021/06/04 09:52:14;;;;;;;;;;;30.30;99.90;;;;;;4972447;28;20329;-80
2021/06/04 09:54:39;;;;;;;;;;;30.20;99.90;;;;;;5005095;28;20038;-80
2021/06/04 09:57:04;;;;;;;;;;;29.90;99.90;;;;;;4972543;28;20068;-80
2021/06/04 09:59:30;;;;;;;;;;;29.90;99.90;;;;;;4973568;28;20053;-80
2021/06/04 10:01:55;;;;;;;;;;;29.90;99.90;;;;;;4974194;28;20352;-80
2021/06/04 10:04:27;;;;;;;;;;;29.90;99.90;;;;;;5005241;28;20053;-80
2021/06/04 10:07:26;;;;;;;;;;;30.30;99.90;;;;;;5005285;28;20130;-81
2021/06/04 10:09:51;;;;;;;;;;;30.50;99.90;;;;;;4941858;28;20050;-79
2021/06/04 10:12:17;;;;;;;;;;;30.30;99.90;;;;;;5008721;28;20065;-80
2021/06/04 10:14:58;;;;;;;;;;;30.60;99.90;;;;;;4977564;28;20069;-81
2021/06/04 10:20:23;;;;;;;;;;;31.20;99.90;;;;;;4977603;28;20524;-81
2021/06/04 10:22:51;;;;;;;;;;;32.30;99.90;;;;;;5008596;28;20100;-80
2021/06/04 10:25:22;;;;;;;;;;;32.80;99.90;;;;;;5008638;28;20057;-80
2021/06/04 10:27:52;;;;;;;;;;;32.90;99.90;;;;;;5009130;28;20039;-82
2021/06/04 10:30:18;;;;;;;;;;;32.40;99.90;;;;;;5008850;28;20049;-81
2021/06/04 10:33:03;;;;;;;;;;;32.70;99.90;;;;;;4977235;28;20484;-80
2021/06/04 10:35:37;;;;;;;;;;;32.50;99.90;;;;;;5007587;28;20097;-82
2021/06/04 10:38:14;;;;;;;;;;;31.70;99.90;;;;;;5008300;28;20042;-81
2021/06/04 10:40:45;;;;;;;;;;;32.00;99.90;;;;;;5007907;28;20049;-81
2021/06/04 10:43:17;;;;;;;;;;;32.60;99.90;;;;;;4975905;28;20038;-82
2021/06/04 10:45:54;;;;;;;;;;;33.20;99.90;;;;;;4977617;28;20140;-81
2021/06/04 10:48:38;;;;;;;;;;;33.60;99.90;;;;;;5001908;28;20031;-82
2021/06/04 10:51:25;;;;;;;;;;;34.60;99.90;;;;;;4975958;28;20053;-82
2021/06/04 10:54:12;;;;;;;5.20;4.70;;;34.50;98.40;;;;;;4975164;28;20042;-81
2021/06/04 10:57:00;;;;;;;7.63;3.95;;;34.80;99.90;;;;;;4972031;28;20030;-81
2021/06/04 10:59:42;;;;;;;3.72;3.42;;;34.80;97.90;;;;;;4967013;28;20031;-81
2021/06/04 11:02:44;;;;;;;3.50;3.15;;;35.40;97.80;;;;;;4966043;28;20019;-81
2021/06/04 11:05:39;;;;;;;3.47;3.10;;;36.00;94.10;;;;;;4965739;28;20050;-80
2021/06/04 11:08:14;;;;;;;5.45;4.13;;;35.70;96.60;;;;;;4967010;28;20047;-80
2021/06/04 11:10:49;;;;;;;3.70;3.38;;;35.10;93.60;;;;;;4966071;28;20049;-81
2021/06/04 11:13:21;;;;;;;4.63;2.80;;;34.70;95.00;;;;;;4962729;28;20035;-82
2021/06/04 11:16:00;;;;;;;4.68;3.30;;;34.20;96.20;;;;;;4956005;28;20023;-80
2021/06/04 11:18:54;;;;;;;4.28;3.88;;;33.60;95.20;;;;;;4962491;28;20562;-82
2021/06/04 11:21:31;;;;;;;3.15;2.85;;;32.90;95.90;;;;;;4969048;28;20036;-81
2021/06/04 11:24:11;;;;;;;3.15;2.67;;;31.80;96.70;;;;;;4970475;28;20293;-81
2021/06/04 11:26:44;;;;;;;4.13;3.63;;;31.80;99.00;;;;;;4965055;28;20021;-80
2021/06/04 11:29:21;;;;;;;;;;;31.80;97.60;;;;;;4964292;28;20074;-81
2021/06/04 11:31:51;;;;;;;;;;;30.90;99.90;;;;;;4965133;28;20393;-81
2021/06/04 11:34:46;;;;;;;;;;;30.40;99.90;;;;;;4965745;28;20329;-81
2021/06/04 11:37:24;;;;;;;;;;;30.50;99.90;;;;;;4953902;28;19921;-80
2021/06/04 11:39:52;;;;;;;;;;;30.60;99.90;;;;;;4965010;28;19914;-81
2021/06/04 11:42:20;;;;;;;;;;;30.90;99.90;;;;;;4966806;28;20026;-81
2021/06/04 11:44:51;;;;;;;;;;;30.90;99.90;;;;;;4963895;28;20434;-80
2021/06/04 11:47:16;;;;;;;;;;;30.70;99.90;;;;;;4966176;28;19993;-81
2021/06/04 11:49:54;;;;;;;;;;;31.00;99.90;;;;;;4967185;28;24087;-80
2021/06/04 11:52:27;;;;;;;;;;;30.80;99.90;;;;;;4963504;28;19907;-81
2021/06/04 11:55:13;;;;;;;;;;;30.80;99.90;;;;;;4955284;28;20038;-80
2021/06/04 11:57:50;;;;;;;;;;;30.70;99.90;;;;;;4955076;29;19989;-80
2021/06/04 12:00:24;;;;;;;;;;;30.60;99.90;;;;;;4954912;28;20008;-81
2021/06/04 12:03:05;;;;;;;;;;;30.60;99.90;;;;;;4954532;28;20064;-81
2021/06/04 12:05:36;;;;;;;;;;;31.00;99.90;;;;;;4972410;28;20039;-81
2021/06/04 12:08:14;;;;;;;;;;;31.10;99.90;;;;;;5007778;28;19910;-81
2021/06/04 12:10:49;;;;;;;;;;;31.30;99.90;;;;;;4966803;28;20033;-81
2021/06/04 12:13:31;;;;;;;;;;;31.20;98.50;;;;;;4963581;28;25071;-80
2021/06/04 12:16:16;;;;;;;;;;;31.30;99.90;;;;;;4953708;28;20496;-80
2021/06/04 12:18:59;;;;;;;;;;;31.20;99.90;;;;;;4957586;28;20631;-80
2021/06/04 12:21:46;;;;;;;;;;;31.20;99.90;;;;;;4974333;28;20040;-80
2021/06/04 12:24:20;;;;;;;;;;;31.40;99.90;;;;;;4967447;28;20034;-81
2021/06/04 12:26:48;;;;;;;;;;;31.90;99.40;;;;;;4973227;28;19957;-81
2021/06/04 12:29:20;;;;;;;;;;;31.90;99.90;;;;;;4973979;28;20169;-80
2021/06/04 12:31:52;;;;;;;;;;;32.00;97.20;;;;;;4972595;28;19913;-81
2021/06/04 12:34:47;;;;;;;;;;;32.20;97.30;;;;;;5005672;28;19953;-82
2021/06/04 12:37:23;;;;;;;;;;;32.60;99.90;;;;;;4973645;28;20037;-80
2021/06/04 12:39:58;;;;;;;;;;;32.90;98.30;;;;;;4974016;28;20430;-81
2021/06/04 12:42:24;;;;;;;;;;;32.70;95.90;;;;;;4974135;28;19917;-81
2021/06/04 12:44:55;;;;;;;;;;;32.30;95.90;;;;;;4972775;28;19906;-80
2021/06/04 12:47:26;;;;;;;;;;;31.90;95.50;;;;;;4973608;28;19913;-80
2021/06/04 12:49:52;;;;;;;;;;;31.80;95.30;;;;;;4973158;28;24174;-81
2021/06/04 12:52:20;;;;;;;;;;;31.20;96.00;;;;;;5005694;28;20075;-82
2021/06/04 12:54:46;;;;;;;;;;;30.70;97.50;;;;;;5006235;28;19906;-80
2021/06/04 12:57:23;;;;;;;;;;;29.80;96.00;;;;;;5006150;28;19910;-80
2021/06/04 12:59:50;;;;;;;;;;;28.80;98.30;;;;;;5006218;28;19916;-81
2021/06/04 13:02:17;;;;;;;;;;;28.20;98.50;;;;;;5006890;28;19915;-81
2021/06/04 13:04:47;;;;;;;;;;;27.60;99.60;;;;;;5006637;28;19965;-82
2021/06/04 13:07:25;;;;;;;;;;;26.80;99.90;;;;;;5006404;28;19912;-81
2021/06/04 13:10:12;;;;;;;;;;;26.10;99.90;;;;;;4974011;28;19949;-81
2021/06/04 13:12:39;;;;;;;;;;;25.70;99.90;;;;;;4976100;28;19981;-82
2021/06/04 13:15:10;;;;;;;;;;;25.20;99.90;;;;;;4977391;28;19961;-82
2021/06/04 13:17:36;;;;;;;;;;;23.60;99.90;;;;;;4974533;28;19956;-80
2021/06/04 13:20:12;;;;;;;;;;;20.90;99.90;;;;;;5003319;28;19953;-80
2021/06/04 13:22:39;;;;;;;;;;;19.80;99.90;;;;;;4982205;28;19944;-80
2021/06/04 13:25:11;;;;;;;;;;;19.60;99.90;;;;;;4977365;28;20361;-80
2021/06/04 13:27:37;;;;;;;;;;;19.30;99.90;;;;;;4973083;28;19990;-82
2021/06/04 13:30:07;;;;;;;;;;;19.50;99.90;;;;;;4965138;28;19906;-83
2021/06/04 13:32:41;;;;;;;;;;;19.40;99.90;;;;;;5005089;28;19960;-82
2021/06/04 13:35:11;;;;;;;;;;;19.40;99.90;;;;;;5000669;28;19925;-81
2021/06/04 13:37:40;;;;;;;;;;;19.50;99.90;;;;;;4968470;28;19913;-82
2021/06/04 13:40:10;;;;;;;;;;;19.60;99.90;;;;;;5004669;28;19917;-82
2021/06/04 13:42:36;;;;;;;;;;;19.80;99.90;;;;;;5001465;28;19917;-83
2021/06/04 13:45:04;;;;;;;;;;;19.90;99.90;;;;;;5003417;28;19914;-82
2021/06/04 13:47:32;;;;;;;;;;;20.10;99.90;;;;;;5002822;28;19993;-82
2021/06/04 13:50:12;;;;;;;;;;;20.10;99.90;;;;;;4975892;28;19949;-82
2021/06/04 13:52:38;;;;;;;;;;;20.10;99.90;;;;;;4977391;28;19910;-82
2021/06/04 13:55:03;;;;;;;;;;;20.10;99.90;;;;;;4992347;28;19973;-82
2021/06/04 13:57:36;;;;;;;;;;;20.10;99.90;;;;;;5008428;28;19906;-81
2021/06/04 14:00:14;;;;;;;;;;;20.10;99.90;;;;;;5008035;28;20008;-81
2021/06/04 14:02:42;;;;;;;;;;;20.20;99.90;;;;;;5008342;28;19949;-81
2021/06/04 14:05:13;;;;;;;;;;;20.20;99.90;;;;;;5007975;28;20277;-82